QTR1183 OEJN-OTHH
Flight info
| Callsign | QTR1183 |
|---|---|
| Flight time | 1h 44m |
| Altitude | 41000 |
| Route | EGREP T532 KODIS Y214 RAPMA DCT LADBO T142 LAEEB |
| Aircraft | B77W/H-SDE1E2E3FGHIJ2J3J4J5M1RWXY/LB1D1 |
Departure
| Time | 2026-05-08 07:31 |
|---|---|
| Airport | King Abdulaziz International Airport (OEJN) |
Arrival
| Time | 2026-05-08 09:16 |
|---|---|
| Airport | Hamad International Airport (OTHH) |
| Time | Latitude | Longitude | Altitude | Speed | Heading |
|---|---|---|---|---|---|
| 2026-05-08 06:39 | 21.67263 | 39.17123 | 62 ft | 0 kts | 130° |
| 2026-05-08 07:17 | 21.67271 | 39.17114 | 62 ft | 2 kts | 130° |
| 2026-05-08 07:17 | 21.67280 | 39.17102 | 62 ft | 2 kts | 130° |
| 2026-05-08 07:18 | 21.67290 | 39.17090 | 62 ft | 2 kts | 140° |
| 2026-05-08 07:18 | 21.67302 | 39.17082 | 62 ft | 2 kts | 156° |
| 2026-05-08 07:18 | 21.67317 | 39.17077 | 62 ft | 2 kts | 171° |
| 2026-05-08 07:18 | 21.67331 | 39.17076 | 62 ft | 2 kts | 185° |
| 2026-05-08 07:19 | 21.67346 | 39.17078 | 62 ft | 2 kts | 198° |
| 2026-05-08 07:19 | 21.67359 | 39.17085 | 62 ft | 2 kts | 212° |
| 2026-05-08 07:19 | 21.67367 | 39.17091 | 62 ft | 1 kts | 220° |
| 2026-05-08 07:22 | 21.67357 | 39.17082 | 62 ft | 4 kts | 219° |
| 2026-05-08 07:22 | 21.67331 | 39.17049 | 62 ft | 7 kts | 251° |
| 2026-05-08 07:22 | 21.67347 | 39.16994 | 62 ft | 9 kts | 310° |
| 2026-05-08 07:23 | 21.67405 | 39.16945 | 62 ft | 11 kts | 332° |
| 2026-05-08 07:23 | 21.67487 | 39.16909 | 62 ft | 13 kts | 340° |
| 2026-05-08 07:23 | 21.67582 | 39.16873 | 62 ft | 15 kts | 340° |
| 2026-05-08 07:23 | 21.67682 | 39.16833 | 62 ft | 12 kts | 338° |
| 2026-05-08 07:24 | 21.67703 | 39.16765 | 62 ft | 10 kts | 251° |
| 2026-05-08 07:24 | 21.67679 | 39.16693 | 62 ft | 9 kts | 250° |
| 2026-05-08 07:24 | 21.67656 | 39.16624 | 62 ft | 10 kts | 251° |
| 2026-05-08 07:24 | 21.67630 | 39.16551 | 62 ft | 10 kts | 249° |
| 2026-05-08 07:25 | 21.67602 | 39.16473 | 62 ft | 11 kts | 249° |
| 2026-05-08 07:25 | 21.67572 | 39.16387 | 62 ft | 13 kts | 249° |
| 2026-05-08 07:25 | 21.67439 | 39.16261 | 62 ft | 15 kts | 159° |
| 2026-05-08 07:26 | 21.67345 | 39.16300 | 62 ft | 14 kts | 159° |
| 2026-05-08 07:26 | 21.67255 | 39.16337 | 62 ft | 13 kts | 158° |
| 2026-05-08 07:26 | 21.67169 | 39.16373 | 62 ft | 12 kts | 159° |
| 2026-05-08 07:26 | 21.67087 | 39.16405 | 62 ft | 12 kts | 159° |
| 2026-05-08 07:27 | 21.67009 | 39.16436 | 62 ft | 11 kts | 160° |
| 2026-05-08 07:27 | 21.66934 | 39.16466 | 62 ft | 11 kts | 160° |
| 2026-05-08 07:27 | 21.66857 | 39.16496 | 62 ft | 12 kts | 160° |
| 2026-05-08 07:27 | 21.66769 | 39.16531 | 62 ft | 14 kts | 159° |
| 2026-05-08 07:28 | 21.66672 | 39.16569 | 62 ft | 14 kts | 159° |
| 2026-05-08 07:28 | 21.66580 | 39.16606 | 62 ft | 13 kts | 160° |
| 2026-05-08 07:28 | 21.66493 | 39.16640 | 62 ft | 12 kts | 160° |
| 2026-05-08 07:28 | 21.66409 | 39.16672 | 62 ft | 12 kts | 160° |
| 2026-05-08 07:29 | 21.66329 | 39.16703 | 62 ft | 11 kts | 160° |
| 2026-05-08 07:29 | 21.66252 | 39.16729 | 62 ft | 10 kts | 181° |
| 2026-05-08 07:29 | 21.66200 | 39.16679 | 62 ft | 10 kts | 240° |
| 2026-05-08 07:29 | 21.66173 | 39.16612 | 62 ft | 9 kts | 248° |
| 2026-05-08 07:30 | 21.66150 | 39.16551 | 62 ft | 8 kts | 248° |
| 2026-05-08 07:30 | 21.66147 | 39.16499 | 62 ft | 6 kts | 299° |
| 2026-05-08 07:30 | 21.66188 | 39.16465 | 62 ft | 12 kts | 336° |
| 2026-05-08 07:30 | 21.66452 | 39.16358 | 62 ft | 78 kts | 339° |
| 2026-05-08 07:31 | 21.67211 | 39.16060 | 63 ft | 150 kts | 340° |
| 2026-05-08 07:31 | 21.68328 | 39.15611 | 374 ft | 183 kts | 339° |
| 2026-05-08 07:31 | 21.69493 | 39.15137 | 1412 ft | 181 kts | 340° |
| 2026-05-08 07:31 | 21.70692 | 39.14670 | 2015 ft | 194 kts | 341° |
| 2026-05-08 07:32 | 21.72041 | 39.14152 | 2565 ft | 211 kts | 341° |
| 2026-05-08 07:32 | 21.73495 | 39.13623 | 3056 ft | 231 kts | 351° |
| 2026-05-08 07:32 | 21.75143 | 39.13735 | 3528 ft | 249 kts | 22° |
| 2026-05-08 07:32 | 21.76623 | 39.14803 | 4169 ft | 263 kts | 41° |
| 2026-05-08 07:33 | 21.77990 | 39.16121 | 5079 ft | 267 kts | 42° |
| 2026-05-08 07:33 | 21.79381 | 39.17479 | 5953 ft | 272 kts | 43° |
| 2026-05-08 07:33 | 21.80798 | 39.18864 | 6728 ft | 280 kts | 43° |
| 2026-05-08 07:33 | 21.82250 | 39.20284 | 7517 ft | 287 kts | 43° |
| 2026-05-08 07:34 | 21.83747 | 39.21749 | 8277 ft | 293 kts | 43° |
| 2026-05-08 07:34 | 21.85273 | 39.23241 | 9012 ft | 300 kts | 43° |
| 2026-05-08 07:34 | 21.86828 | 39.24763 | 9833 ft | 304 kts | 42° |
| 2026-05-08 07:34 | 21.88420 | 39.26322 | 10451 ft | 317 kts | 43° |
| 2026-05-08 07:35 | 21.90096 | 39.27963 | 10954 ft | 335 kts | 43° |
| 2026-05-08 07:35 | 21.91881 | 39.29712 | 11466 ft | 352 kts | 42° |
| 2026-05-08 07:35 | 21.93749 | 39.31543 | 12033 ft | 367 kts | 42° |
| 2026-05-08 07:35 | 21.95683 | 39.33438 | 12605 ft | 384 kts | 42° |
| 2026-05-08 07:36 | 21.97711 | 39.35427 | 13185 ft | 399 kts | 42° |
| 2026-05-08 07:36 | 21.99787 | 39.37463 | 13849 ft | 411 kts | 43° |
| 2026-05-08 07:36 | 22.01934 | 39.39571 | 14680 ft | 419 kts | 43° |
| 2026-05-08 07:36 | 22.04099 | 39.41696 | 15666 ft | 425 kts | 43° |
| 2026-05-08 07:37 | 22.06312 | 39.43869 | 16555 ft | 432 kts | 43° |
| 2026-05-08 07:37 | 22.08554 | 39.46073 | 17390 ft | 439 kts | 43° |
| 2026-05-08 07:37 | 22.10829 | 39.48311 | 18230 ft | 446 kts | 42° |
| 2026-05-08 07:37 | 22.13167 | 39.50610 | 19105 ft | 452 kts | 41° |
| 2026-05-08 07:38 | 22.15512 | 39.52918 | 19967 ft | 456 kts | 40° |
| 2026-05-08 07:38 | 22.17860 | 39.55229 | 20819 ft | 461 kts | 40° |
| 2026-05-08 07:38 | 22.20258 | 39.57590 | 21639 ft | 466 kts | 39° |
| 2026-05-08 07:38 | 22.22667 | 39.59964 | 22410 ft | 471 kts | 38° |
| 2026-05-08 07:39 | 22.25103 | 39.62364 | 23235 ft | 475 kts | 38° |
| 2026-05-08 07:39 | 22.27576 | 39.64801 | 23983 ft | 482 kts | 38° |
| 2026-05-08 07:39 | 22.30090 | 39.67280 | 24600 ft | 490 kts | 39° |
| 2026-05-08 07:39 | 22.32630 | 39.69786 | 25221 ft | 498 kts | 39° |
| 2026-05-08 07:40 | 22.35213 | 39.72337 | 25951 ft | 502 kts | 39° |
| 2026-05-08 07:40 | 22.37791 | 39.74887 | 26664 ft | 507 kts | 39° |
| 2026-05-08 07:40 | 22.40436 | 39.77502 | 27324 ft | 513 kts | 40° |
| 2026-05-08 07:40 | 22.43105 | 39.80145 | 27902 ft | 520 kts | 40° |
| 2026-05-08 07:41 | 22.45806 | 39.82822 | 28554 ft | 526 kts | 40° |
| 2026-05-08 07:41 | 22.48521 | 39.85489 | 29211 ft | 530 kts | 39° |
| 2026-05-08 07:41 | 22.51310 | 39.88146 | 29908 ft | 532 kts | 39° |
| 2026-05-08 07:41 | 22.54118 | 39.90813 | 30597 ft | 534 kts | 39° |
| 2026-05-08 07:42 | 22.56899 | 39.93457 | 31136 ft | 538 kts | 40° |
| 2026-05-08 07:42 | 22.59733 | 39.96158 | 31618 ft | 543 kts | 40° |
| 2026-05-08 07:42 | 22.62617 | 39.98909 | 32098 ft | 547 kts | 40° |
| 2026-05-08 07:42 | 22.65465 | 40.01629 | 32645 ft | 549 kts | 41° |
| 2026-05-08 07:43 | 22.68334 | 40.04372 | 33171 ft | 551 kts | 40° |
| 2026-05-08 07:43 | 22.71228 | 40.07140 | 33710 ft | 553 kts | 40° |
| 2026-05-08 07:43 | 22.74120 | 40.09909 | 34338 ft | 553 kts | 41° |
| 2026-05-08 07:43 | 22.77008 | 40.12677 | 35006 ft | 552 kts | 40° |
| 2026-05-08 07:44 | 22.79907 | 40.15457 | 35174 ft | 555 kts | 40° |
| 2026-05-08 07:44 | 22.85681 | 40.20999 | 35184 ft | 552 kts | 40° |
| 2026-05-08 07:45 | 22.91461 | 40.26553 | 35173 ft | 552 kts | 40° |
| 2026-05-08 07:45 | 22.97164 | 40.32041 | 35171 ft | 551 kts | 41° |
| 2026-05-08 07:46 | 23.02919 | 40.37585 | 35156 ft | 552 kts | 40° |
| 2026-05-08 07:46 | 23.08712 | 40.43173 | 35154 ft | 553 kts | 40° |
| 2026-05-08 07:47 | 23.14469 | 40.48733 | 35123 ft | 553 kts | 40° |
| 2026-05-08 07:47 | 23.20209 | 40.54282 | 35126 ft | 554 kts | 40° |
| 2026-05-08 07:48 | 23.25699 | 40.60197 | 35119 ft | 554 kts | 52° |
| 2026-05-08 07:48 | 23.29661 | 40.67376 | 35103 ft | 549 kts | 70° |
| 2026-05-08 07:49 | 23.32442 | 40.75124 | 35104 ft | 549 kts | 73° |
| 2026-05-08 07:49 | 23.35155 | 40.82902 | 35098 ft | 548 kts | 73° |
| 2026-05-08 07:50 | 23.37849 | 40.90660 | 35102 ft | 550 kts | 73° |
| 2026-05-08 07:50 | 23.40542 | 40.98431 | 35101 ft | 548 kts | 73° |
| 2026-05-08 07:51 | 23.43220 | 41.06179 | 35103 ft | 549 kts | 73° |
| 2026-05-08 07:51 | 23.45906 | 41.13965 | 35108 ft | 548 kts | 73° |
| 2026-05-08 07:52 | 23.48602 | 41.21795 | 35118 ft | 547 kts | 73° |
| 2026-05-08 07:52 | 23.51272 | 41.29567 | 35124 ft | 550 kts | 73° |
| 2026-05-08 07:53 | 23.53944 | 41.37355 | 35126 ft | 545 kts | 73° |
| 2026-05-08 07:53 | 23.56615 | 41.45162 | 35131 ft | 549 kts | 73° |
| 2026-05-08 07:54 | 23.59294 | 41.53002 | 35129 ft | 549 kts | 73° |
| 2026-05-08 07:54 | 23.61956 | 41.60809 | 35133 ft | 547 kts | 73° |
| 2026-05-08 07:55 | 23.64609 | 41.68602 | 35128 ft | 547 kts | 74° |
| 2026-05-08 07:55 | 23.67257 | 41.76398 | 35127 ft | 546 kts | 74° |
| 2026-05-08 07:56 | 23.69773 | 41.84237 | 35128 ft | 547 kts | 75° |
| 2026-05-08 07:56 | 23.72270 | 41.92115 | 35134 ft | 548 kts | 75° |
| 2026-05-08 07:57 | 23.74769 | 41.99991 | 35133 ft | 548 kts | 75° |
| 2026-05-08 07:57 | 23.77423 | 42.07784 | 35143 ft | 545 kts | 74° |
| 2026-05-08 07:58 | 23.80076 | 42.15518 | 35144 ft | 549 kts | 74° |
| 2026-05-08 07:58 | 23.82766 | 42.23386 | 35143 ft | 548 kts | 73° |
| 2026-05-08 07:59 | 23.85425 | 42.31189 | 35147 ft | 546 kts | 74° |
| 2026-05-08 07:59 | 23.88075 | 42.38983 | 35151 ft | 547 kts | 74° |
| 2026-05-08 08:00 | 23.90715 | 42.46769 | 35153 ft | 545 kts | 74° |
| 2026-05-08 08:00 | 23.93362 | 42.54590 | 35156 ft | 546 kts | 74° |
| 2026-05-08 08:01 | 23.96004 | 42.62414 | 35166 ft | 547 kts | 74° |
| 2026-05-08 08:01 | 23.98618 | 42.70164 | 35152 ft | 542 kts | 74° |
| 2026-05-08 08:02 | 24.01245 | 42.77977 | 35153 ft | 545 kts | 75° |
| 2026-05-08 08:02 | 24.03085 | 42.85933 | 35150 ft | 534 kts | 90° |
| 2026-05-08 08:02 | 24.03277 | 42.89943 | 35154 ft | 522 kts | 99° |
| 2026-05-08 08:03 | 24.03011 | 42.93829 | 35163 ft | 513 kts | 106° |
| 2026-05-08 08:03 | 24.01316 | 43.01458 | 35167 ft | 510 kts | 115° |
| 2026-05-08 08:04 | 23.99349 | 43.08819 | 35168 ft | 501 kts | 115° |
| 2026-05-08 08:04 | 23.97358 | 43.16186 | 35166 ft | 501 kts | 115° |
| 2026-05-08 08:05 | 23.95387 | 43.23441 | 35164 ft | 503 kts | 115° |
| 2026-05-08 08:05 | 23.93391 | 43.30765 | 35167 ft | 501 kts | 115° |
| 2026-05-08 08:06 | 23.91400 | 43.38049 | 35172 ft | 503 kts | 115° |
| 2026-05-08 08:06 | 23.89391 | 43.45385 | 35175 ft | 499 kts | 115° |
| 2026-05-08 08:07 | 23.87423 | 43.52550 | 35177 ft | 502 kts | 115° |
| 2026-05-08 08:07 | 23.85406 | 43.59878 | 35171 ft | 500 kts | 115° |
| 2026-05-08 08:08 | 23.83395 | 43.67170 | 35153 ft | 502 kts | 115° |
| 2026-05-08 08:08 | 23.81374 | 43.74487 | 35150 ft | 499 kts | 115° |
| 2026-05-08 08:09 | 23.79370 | 43.81721 | 35145 ft | 500 kts | 115° |
| 2026-05-08 08:09 | 23.77486 | 43.89117 | 35149 ft | 508 kts | 107° |
| 2026-05-08 08:10 | 23.76767 | 43.96866 | 35146 ft | 515 kts | 102° |
| 2026-05-08 08:10 | 23.76203 | 44.04657 | 35146 ft | 516 kts | 102° |
| 2026-05-08 08:11 | 23.75627 | 44.12487 | 35145 ft | 514 kts | 102° |
| 2026-05-08 08:11 | 23.75048 | 44.20255 | 35146 ft | 515 kts | 102° |
| 2026-05-08 08:12 | 23.74461 | 44.28052 | 35150 ft | 514 kts | 102° |
| 2026-05-08 08:12 | 23.73867 | 44.35854 | 35156 ft | 515 kts | 102° |
| 2026-05-08 08:13 | 23.73272 | 44.43626 | 35151 ft | 513 kts | 101° |
| 2026-05-08 08:13 | 23.72664 | 44.51484 | 35664 ft | 521 kts | 101° |
| 2026-05-08 08:13 | 23.72364 | 44.55368 | 36420 ft | 517 kts | 101° |
| 2026-05-08 08:14 | 23.72062 | 44.59271 | 37083 ft | 515 kts | 101° |
| 2026-05-08 08:14 | 23.71459 | 44.66963 | 37145 ft | 517 kts | 102° |
| 2026-05-08 08:15 | 23.70851 | 44.74704 | 37148 ft | 514 kts | 102° |
| 2026-05-08 08:15 | 23.70233 | 44.82491 | 37139 ft | 515 kts | 102° |
| 2026-05-08 08:16 | 23.69616 | 44.90248 | 37135 ft | 512 kts | 102° |
| 2026-05-08 08:16 | 23.68991 | 44.98020 | 37135 ft | 514 kts | 102° |
| 2026-05-08 08:17 | 23.68364 | 45.05775 | 37128 ft | 512 kts | 102° |
| 2026-05-08 08:17 | 23.67736 | 45.13495 | 37127 ft | 514 kts | 102° |
| 2026-05-08 08:18 | 23.67097 | 45.21318 | 37127 ft | 512 kts | 102° |
| 2026-05-08 08:18 | 23.66464 | 45.29007 | 37124 ft | 512 kts | 102° |
| 2026-05-08 08:19 | 23.65822 | 45.36759 | 37121 ft | 513 kts | 102° |
| 2026-05-08 08:19 | 23.65174 | 45.44538 | 37110 ft | 511 kts | 102° |
| 2026-05-08 08:20 | 23.64525 | 45.52278 | 37104 ft | 511 kts | 101° |
| 2026-05-08 08:20 | 23.63869 | 45.60060 | 37103 ft | 513 kts | 102° |
| 2026-05-08 08:21 | 23.63214 | 45.67780 | 37079 ft | 511 kts | 102° |
| 2026-05-08 08:21 | 23.62554 | 45.75520 | 37071 ft | 511 kts | 102° |
| 2026-05-08 08:22 | 23.61884 | 45.83309 | 37057 ft | 510 kts | 102° |
| 2026-05-08 08:22 | 23.61221 | 45.90986 | 37057 ft | 509 kts | 102° |
| 2026-05-08 08:23 | 23.60551 | 45.98685 | 37063 ft | 511 kts | 102° |
| 2026-05-08 08:23 | 23.59876 | 46.06405 | 37070 ft | 509 kts | 102° |
| 2026-05-08 08:24 | 23.59195 | 46.14146 | 37082 ft | 510 kts | 102° |
| 2026-05-08 08:24 | 23.58516 | 46.21839 | 37098 ft | 507 kts | 102° |
| 2026-05-08 08:25 | 23.57833 | 46.29506 | 37108 ft | 510 kts | 102° |
| 2026-05-08 08:25 | 23.57147 | 46.37193 | 37121 ft | 506 kts | 102° |
| 2026-05-08 08:26 | 23.56457 | 46.44854 | 37140 ft | 508 kts | 102° |
| 2026-05-08 08:26 | 23.55766 | 46.52497 | 37152 ft | 507 kts | 102° |
| 2026-05-08 08:27 | 23.55069 | 46.60160 | 37135 ft | 507 kts | 102° |
| 2026-05-08 08:27 | 23.54371 | 46.67793 | 37110 ft | 506 kts | 102° |
| 2026-05-08 08:28 | 23.53672 | 46.75393 | 37096 ft | 505 kts | 102° |
| 2026-05-08 08:28 | 23.52967 | 46.83020 | 37088 ft | 506 kts | 102° |
| 2026-05-08 08:29 | 23.52257 | 46.90659 | 37078 ft | 505 kts | 102° |
| 2026-05-08 08:29 | 23.51547 | 46.98249 | 37071 ft | 506 kts | 102° |
| 2026-05-08 08:30 | 23.50833 | 47.05850 | 37067 ft | 505 kts | 102° |
| 2026-05-08 08:30 | 23.49753 | 47.17281 | 37066 ft | 503 kts | 102° |
| 2026-05-08 08:31 | 23.49030 | 47.24871 | 37064 ft | 505 kts | 102° |
| 2026-05-08 08:31 | 23.48306 | 47.32441 | 37065 ft | 504 kts | 102° |
| 2026-05-08 08:32 | 23.47572 | 47.40076 | 37058 ft | 504 kts | 102° |
| 2026-05-08 08:32 | 23.46842 | 47.47632 | 37052 ft | 502 kts | 102° |
| 2026-05-08 08:33 | 23.46110 | 47.55164 | 37048 ft | 502 kts | 101° |
| 2026-05-08 08:33 | 23.45372 | 47.62729 | 37044 ft | 501 kts | 102° |
| 2026-05-08 08:34 | 23.44629 | 47.70298 | 37026 ft | 502 kts | 102° |
| 2026-05-08 08:34 | 23.43889 | 47.77813 | 37019 ft | 500 kts | 102° |
| 2026-05-08 08:35 | 23.43140 | 47.85366 | 37015 ft | 501 kts | 102° |
| 2026-05-08 08:35 | 23.42395 | 47.92854 | 37007 ft | 499 kts | 102° |
| 2026-05-08 08:36 | 23.41644 | 48.00361 | 37003 ft | 500 kts | 102° |
| 2026-05-08 08:36 | 23.40888 | 48.07882 | 37001 ft | 499 kts | 102° |
| 2026-05-08 08:37 | 23.40128 | 48.15399 | 36998 ft | 501 kts | 102° |
| 2026-05-08 08:37 | 23.39363 | 48.22935 | 36999 ft | 499 kts | 102° |
| 2026-05-08 08:38 | 23.38713 | 48.30473 | 36991 ft | 504 kts | 95° |
| 2026-05-08 08:38 | 23.39631 | 48.38057 | 36989 ft | 514 kts | 77° |
| 2026-05-08 08:39 | 23.42036 | 48.45439 | 36996 ft | 519 kts | 73° |
| 2026-05-08 08:39 | 23.44549 | 48.52790 | 36991 ft | 517 kts | 73° |
| 2026-05-08 08:40 | 23.47052 | 48.60151 | 36998 ft | 519 kts | 73° |
| 2026-05-08 08:40 | 23.49539 | 48.67485 | 36988 ft | 517 kts | 73° |
| 2026-05-08 08:41 | 23.52027 | 48.74845 | 36992 ft | 517 kts | 73° |
| 2026-05-08 08:41 | 23.54494 | 48.82159 | 36979 ft | 516 kts | 73° |
| 2026-05-08 08:42 | 23.56974 | 48.89527 | 36966 ft | 516 kts | 73° |
| 2026-05-08 08:42 | 23.59440 | 48.96870 | 36963 ft | 518 kts | 73° |
| 2026-05-08 08:43 | 23.61897 | 49.04197 | 36956 ft | 517 kts | 73° |
| 2026-05-08 08:43 | 23.64369 | 49.11584 | 36958 ft | 517 kts | 73° |
| 2026-05-08 08:44 | 23.66830 | 49.18948 | 36958 ft | 516 kts | 73° |
| 2026-05-08 08:44 | 23.69282 | 49.26305 | 36962 ft | 517 kts | 73° |
| 2026-05-08 08:45 | 23.69716 | 49.27606 | 36963 ft | 517 kts | 73° |
| 2026-05-08 08:47 | 23.70192 | 49.29037 | 36961 ft | 517 kts | 73° |
| 2026-05-08 08:47 | 23.72628 | 49.36358 | 36961 ft | 516 kts | 73° |
| 2026-05-08 08:48 | 23.75083 | 49.43751 | 36960 ft | 516 kts | 73° |
| 2026-05-08 08:48 | 23.77525 | 49.51120 | 36952 ft | 517 kts | 73° |
| 2026-05-08 08:49 | 23.79954 | 49.58460 | 36956 ft | 516 kts | 73° |
| 2026-05-08 08:49 | 23.82403 | 49.65877 | 36951 ft | 518 kts | 73° |
| 2026-05-08 08:50 | 23.84845 | 49.73285 | 36948 ft | 517 kts | 73° |
| 2026-05-08 08:50 | 23.87268 | 49.80648 | 36940 ft | 517 kts | 73° |
| 2026-05-08 08:51 | 23.89710 | 49.88082 | 36938 ft | 517 kts | 73° |
| 2026-05-08 08:51 | 23.92126 | 49.95453 | 36937 ft | 517 kts | 73° |
| 2026-05-08 08:52 | 23.94529 | 50.02794 | 36934 ft | 517 kts | 73° |
| 2026-05-08 08:52 | 23.96962 | 50.10242 | 36932 ft | 516 kts | 73° |
| 2026-05-08 08:53 | 23.98156 | 50.13902 | 36738 ft | 510 kts | 73° |
| 2026-05-08 08:53 | 23.99340 | 50.17535 | 35832 ft | 514 kts | 73° |
| 2026-05-08 08:53 | 24.00546 | 50.21242 | 34942 ft | 516 kts | 72° |
| 2026-05-08 08:53 | 24.01744 | 50.24926 | 34139 ft | 516 kts | 72° |
| 2026-05-08 08:54 | 24.02943 | 50.28615 | 33313 ft | 517 kts | 72° |
| 2026-05-08 08:54 | 24.04145 | 50.32315 | 32516 ft | 517 kts | 72° |
| 2026-05-08 08:54 | 24.05334 | 50.35980 | 31705 ft | 519 kts | 72° |
| 2026-05-08 08:54 | 24.06537 | 50.39693 | 30844 ft | 521 kts | 72° |
| 2026-05-08 08:55 | 24.07748 | 50.43433 | 30250 ft | 517 kts | 72° |
| 2026-05-08 08:55 | 24.08936 | 50.47102 | 29776 ft | 510 kts | 72° |
| 2026-05-08 08:55 | 24.10107 | 50.50725 | 29256 ft | 505 kts | 72° |
| 2026-05-08 08:55 | 24.11289 | 50.54385 | 28695 ft | 501 kts | 72° |
| 2026-05-08 08:56 | 24.12448 | 50.57975 | 28142 ft | 497 kts | 72° |
| 2026-05-08 08:56 | 24.13596 | 50.61538 | 27580 ft | 493 kts | 72° |
| 2026-05-08 08:56 | 24.14732 | 50.65066 | 27026 ft | 489 kts | 72° |
| 2026-05-08 08:56 | 24.15858 | 50.68565 | 26456 ft | 486 kts | 72° |
| 2026-05-08 08:57 | 24.16973 | 50.72035 | 25894 ft | 482 kts | 72° |
| 2026-05-08 08:57 | 24.18070 | 50.75452 | 25333 ft | 478 kts | 72° |
| 2026-05-08 08:57 | 24.19178 | 50.78902 | 24758 ft | 474 kts | 72° |
| 2026-05-08 08:57 | 24.20262 | 50.82285 | 24194 ft | 470 kts | 72° |
| 2026-05-08 08:58 | 24.21354 | 50.85693 | 23600 ft | 466 kts | 72° |
| 2026-05-08 08:58 | 24.22419 | 50.89020 | 23022 ft | 462 kts | 72° |
| 2026-05-08 08:58 | 24.23476 | 50.92327 | 22454 ft | 458 kts | 72° |
| 2026-05-08 08:58 | 24.24517 | 50.95585 | 21883 ft | 454 kts | 72° |
| 2026-05-08 08:59 | 24.25561 | 50.98853 | 21313 ft | 450 kts | 72° |
| 2026-05-08 08:59 | 24.26582 | 51.02056 | 20742 ft | 446 kts | 72° |
| 2026-05-08 08:59 | 24.27600 | 51.05248 | 20171 ft | 442 kts | 72° |
| 2026-05-08 08:59 | 24.28609 | 51.08417 | 19606 ft | 438 kts | 72° |
| 2026-05-08 09:00 | 24.29608 | 51.11557 | 19022 ft | 434 kts | 72° |
| 2026-05-08 09:00 | 24.30609 | 51.14703 | 18457 ft | 430 kts | 72° |
| 2026-05-08 09:00 | 24.31590 | 51.17791 | 17891 ft | 426 kts | 73° |
| 2026-05-08 09:00 | 24.32608 | 51.20810 | 17339 ft | 424 kts | 68° |
| 2026-05-08 09:01 | 24.34050 | 51.23650 | 16767 ft | 423 kts | 57° |
| 2026-05-08 09:01 | 24.35908 | 51.26120 | 16186 ft | 422 kts | 47° |
| 2026-05-08 09:01 | 24.37997 | 51.28332 | 15622 ft | 418 kts | 45° |
| 2026-05-08 09:01 | 24.40091 | 51.30495 | 15081 ft | 415 kts | 45° |
| 2026-05-08 09:02 | 24.42202 | 51.32674 | 14504 ft | 411 kts | 45° |
| 2026-05-08 09:02 | 24.44279 | 51.34818 | 13940 ft | 408 kts | 45° |
| 2026-05-08 09:02 | 24.46335 | 51.36943 | 13372 ft | 405 kts | 45° |
| 2026-05-08 09:02 | 24.48353 | 51.39028 | 12805 ft | 401 kts | 44° |
| 2026-05-08 09:03 | 24.50386 | 51.41131 | 12271 ft | 398 kts | 44° |
| 2026-05-08 09:03 | 24.52437 | 51.43127 | 11679 ft | 396 kts | 38° |
| 2026-05-08 09:03 | 24.54781 | 51.44732 | 11100 ft | 394 kts | 28° |
| 2026-05-08 09:03 | 24.57207 | 51.46064 | 10637 ft | 388 kts | 27° |
| 2026-05-08 09:04 | 24.59459 | 51.47278 | 10522 ft | 374 kts | 27° |
| 2026-05-08 09:04 | 24.61743 | 51.48508 | 10383 ft | 357 kts | 27° |
| 2026-05-08 09:04 | 24.63918 | 51.49681 | 10258 ft | 340 kts | 27° |
| 2026-05-08 09:04 | 24.66000 | 51.50805 | 10131 ft | 324 kts | 27° |
| 2026-05-08 09:05 | 24.67964 | 51.51865 | 9996 ft | 310 kts | 27° |
| 2026-05-08 09:05 | 24.69871 | 51.52893 | 9836 ft | 297 kts | 27° |
| 2026-05-08 09:05 | 24.71707 | 51.53877 | 9571 ft | 293 kts | 27° |
| 2026-05-08 09:05 | 24.73548 | 51.54864 | 9224 ft | 292 kts | 27° |
| 2026-05-08 09:06 | 24.75385 | 51.55850 | 8839 ft | 292 kts | 27° |
| 2026-05-08 09:06 | 24.77210 | 51.56829 | 8493 ft | 291 kts | 27° |
| 2026-05-08 09:06 | 24.79030 | 51.57806 | 8141 ft | 290 kts | 26° |
| 2026-05-08 09:06 | 24.80831 | 51.58774 | 7754 ft | 284 kts | 26° |
| 2026-05-08 09:07 | 24.82570 | 51.59708 | 7470 ft | 274 kts | 26° |
| 2026-05-08 09:07 | 24.84257 | 51.60615 | 7150 ft | 266 kts | 26° |
| 2026-05-08 09:07 | 24.85902 | 51.61500 | 6841 ft | 263 kts | 25° |
| 2026-05-08 09:07 | 24.87580 | 51.62402 | 6517 ft | 272 kts | 25° |
| 2026-05-08 09:08 | 24.89287 | 51.63320 | 6169 ft | 273 kts | 25° |
| 2026-05-08 09:08 | 24.91005 | 51.64245 | 5847 ft | 273 kts | 25° |
| 2026-05-08 09:08 | 24.92708 | 51.65161 | 5500 ft | 273 kts | 25° |
| 2026-05-08 09:08 | 24.94407 | 51.66076 | 5185 ft | 273 kts | 25° |
| 2026-05-08 09:09 | 24.96125 | 51.67001 | 4834 ft | 266 kts | 25° |
| 2026-05-08 09:09 | 24.97733 | 51.67868 | 4632 ft | 255 kts | 25° |
| 2026-05-08 09:09 | 24.99309 | 51.68718 | 4285 ft | 249 kts | 25° |
| 2026-05-08 09:09 | 25.00845 | 51.69546 | 4004 ft | 238 kts | 25° |
| 2026-05-08 09:10 | 25.02345 | 51.70145 | 3902 ft | 219 kts | 4° |
| 2026-05-08 09:10 | 25.03801 | 51.69929 | 3809 ft | 203 kts | 345° |
| 2026-05-08 09:10 | 25.05100 | 51.69461 | 3742 ft | 191 kts | 341° |
| 2026-05-08 09:10 | 25.06328 | 51.68951 | 3639 ft | 186 kts | 340° |
| 2026-05-08 09:11 | 25.07529 | 51.68427 | 3497 ft | 187 kts | 340° |
| 2026-05-08 09:11 | 25.08751 | 51.67887 | 3274 ft | 185 kts | 340° |
| 2026-05-08 09:11 | 25.09938 | 51.67362 | 3053 ft | 183 kts | 340° |
| 2026-05-08 09:11 | 25.11126 | 51.66844 | 2833 ft | 179 kts | 341° |
| 2026-05-08 09:12 | 25.12250 | 51.66354 | 2620 ft | 165 kts | 341° |
| 2026-05-08 09:12 | 25.13300 | 51.65894 | 2428 ft | 158 kts | 341° |
| 2026-05-08 09:12 | 25.14324 | 51.65446 | 2243 ft | 156 kts | 341° |
| 2026-05-08 09:12 | 25.15324 | 51.65007 | 2053 ft | 154 kts | 341° |
| 2026-05-08 09:13 | 25.16332 | 51.64566 | 1859 ft | 154 kts | 340° |
| 2026-05-08 09:13 | 25.17302 | 51.64141 | 1668 ft | 145 kts | 340° |
| 2026-05-08 09:13 | 25.18211 | 51.63742 | 1492 ft | 138 kts | 340° |
| 2026-05-08 09:13 | 25.19101 | 51.63353 | 1320 ft | 137 kts | 340° |
| 2026-05-08 09:14 | 25.19991 | 51.62963 | 1146 ft | 136 kts | 340° |
| 2026-05-08 09:14 | 25.20874 | 51.62576 | 976 ft | 136 kts | 340° |
| 2026-05-08 09:14 | 25.21753 | 51.62191 | 807 ft | 135 kts | 340° |
| 2026-05-08 09:14 | 25.22638 | 51.61802 | 623 ft | 136 kts | 339° |
| 2026-05-08 09:15 | 25.23513 | 51.61419 | 438 ft | 136 kts | 340° |
| 2026-05-08 09:15 | 25.24402 | 51.61041 | 254 ft | 135 kts | 339° |
| 2026-05-08 09:15 | 25.25283 | 51.60648 | 87 ft | 136 kts | 340° |
| 2026-05-08 09:15 | 25.26122 | 51.60285 | 22 ft | 114 kts | 337° |
| 2026-05-08 09:16 | 25.26693 | 51.60031 | 25 ft | 61 kts | 339° |
| 2026-05-08 09:16 | 25.26921 | 51.59938 | 28 ft | 17 kts | 356° |
| 2026-05-08 09:16 | 25.27036 | 51.59951 | 28 ft | 15 kts | 9° |
| 2026-05-08 09:16 | 25.27115 | 51.59983 | 28 ft | 9 kts | 51° |
| 2026-05-08 09:17 | 25.27133 | 51.60035 | 28 ft | 5 kts | 71° |
| 2026-05-08 09:17 | 25.27145 | 51.60070 | 28 ft | 4 kts | 69° |